메인 페이지
METAR-TAF:

METAR-TAF

공항 :

마드리드 바라하스 국제공항

마드리드, 스페인

위도: 40-27N, 경도: 003-33W, 고도: 609m

현재 날씨관측

예보는 31분 전, 17:00시(UTC)에 발표되었습니다.
남남서7kt남남동풍과 서남서풍을 오가는
온도 22°C
습도 41%
기압 1013 hPa
시정 10km 이상
고도 7000ft 상공 구름 조금

METAR: LEMD 171700Z 20007KT 160V250 9999 FEW070 22/08 Q1013 NOSIG

시각: 19:31 (17:31 UTC)

예보

예보는 6 시간 31분 전, 11:00시(UTC)에 발표되었습니다.
예보 대상 시간: 17일 12시부터 18일 18시까지 (UTC)
여러 방향의 바람 5kt
시정 10km 이상
1500m 미만 상공 구름 및 적란운 없음
확률 30% :
일시적
17일 15시부터 17일 18시까지 (UTC)
남서10kt
전환 중
18일 12시부터 18일 14시까지 (UTC)
북동10kt

TAF: LEMD 171100Z 1712/1818 VRB05KT CAVOK TX23/1715Z TN12/1806Z PROB30 TEMPO 1715/1718 22010KT BECMG 1812/1814 04010KT

4,000개 이상의 공항 관측 자료 및 예보 (METAR 및 TAF 보고).

지도상에서 검색 가능한 기상관측소가 노란 점과 빨간 점으로 표시되어 있습니다.

기상관측소 명을 보려면 표시 위로 마우스를 이동하세요.

날씨 관측과 예보를 보려면 클릭하세요.

지도 변경 : 확대하려면 엑스 표시가 있는 녹색 버튼, 축소하려면 빼기 표시가 있는 녹색 버튼, 다음 페이지의 지도를 보려면 녹색 화살표를 클릭하세요.


METAR-TAF: